createdAt,value
2023-04-22T00:01:06.700Z,14.75
2023-04-22T00:03:36.087Z,13.50
2023-04-22T00:06:03.860Z,16.63
2023-04-22T00:08:31.423Z,10.75
2023-04-22T00:10:59.845Z,13.23
2023-04-22T00:13:27.397Z,13.55
2023-04-22T00:15:55.084Z,14.52
2023-04-22T00:18:22.653Z,12.85
2023-04-22T00:20:51.561Z,14.85
2023-04-22T00:23:19.164Z,15.32
2023-04-22T00:25:46.767Z,13.73
2023-04-22T00:28:14.334Z,18.52
2023-04-22T00:30:41.864Z,11.05
2023-04-22T00:33:09.908Z,16.25
2023-04-22T00:35:37.528Z,14.35
2023-04-22T00:38:06.644Z,12.57
2023-04-22T00:40:34.261Z,12.55
2023-04-22T00:43:03.657Z,11.15
2023-04-22T00:45:31.932Z,13.68
2023-04-22T00:48:00.211Z,12.50
2023-04-22T00:50:27.958Z,15.18
2023-04-22T00:52:55.545Z,13.90
2023-04-22T00:55:24.694Z,12.45
2023-04-22T00:57:53.301Z,16.33
2023-04-22T01:00:26.674Z,13.18
2023-04-22T01:02:54.944Z,14.13
2023-04-22T01:05:22.681Z,13.43
2023-04-22T01:07:51.043Z,15.27
2023-04-22T01:10:19.404Z,24.17
2023-04-22T01:12:48.651Z,21.38
2023-04-22T01:15:16.381Z,14.55
2023-04-22T01:17:44.338Z,14.77
2023-04-22T01:20:13.903Z,14.38
2023-04-22T01:22:43.240Z,15.23
2023-04-22T01:25:13.104Z,14.75
2023-04-22T01:27:41.639Z,13.48
2023-04-22T01:30:10.013Z,13.32
2023-04-22T01:32:38.103Z,11.90
2023-04-22T01:35:06.753Z,14.05
2023-04-22T01:37:35.438Z,15.15
2023-04-22T01:40:04.545Z,11.68
2023-04-22T01:42:34.066Z,13.90
2023-04-22T01:45:01.609Z,15.27
2023-04-22T01:47:29.200Z,13.75
2023-04-22T01:49:56.736Z,18.15
2023-04-22T01:52:24.290Z,14.65
2023-04-22T01:54:52.233Z,13.25
2023-04-22T01:57:20.045Z,12.80
2023-04-22T01:59:50.081Z,16.70
2023-04-22T02:02:18.310Z,14.68
2023-04-22T02:04:46.037Z,15.60
2023-04-22T02:07:13.775Z,16.52
2023-04-22T02:09:42.055Z,17.10
2023-04-22T02:12:09.969Z,13.80
2023-04-22T02:14:37.563Z,17.33
2023-04-22T02:17:06.657Z,15.77
2023-04-22T02:19:34.336Z,17.83
2023-04-22T02:22:02.514Z,17.65
2023-04-22T02:24:30.145Z,16.73
2023-04-22T02:26:58.310Z,17.35
2023-04-22T02:29:25.936Z,15.13
2023-04-22T02:31:53.754Z,14.68
2023-04-22T02:34:22.816Z,15.85
2023-04-22T02:36:50.499Z,15.45
2023-04-22T02:39:18.068Z,19.98
2023-04-22T02:41:45.745Z,16.15
2023-04-22T02:44:13.359Z,16.90
2023-04-22T02:46:40.997Z,23.55
2023-04-22T02:49:08.622Z,16.90
2023-04-22T02:51:39.104Z,14.05
2023-04-22T02:54:06.868Z,15.00
2023-04-22T02:56:34.544Z,14.52
2023-04-22T02:59:02.208Z,16.60
2023-04-22T03:01:29.815Z,15.65
2023-04-22T03:03:57.834Z,13.05
2023-04-22T03:06:25.509Z,13.30
2023-04-22T03:08:54.399Z,17.08
2023-04-22T03:11:22.002Z,16.27
2023-04-22T03:13:49.662Z,13.63
2023-04-22T03:16:17.941Z,16.88
2023-04-22T03:18:45.595Z,15.73
2023-04-22T03:21:13.116Z,15.55
2023-04-22T03:23:40.935Z,16.02
2023-04-22T03:26:09.819Z,18.52
2023-04-22T03:28:37.426Z,20.00
2023-04-22T03:31:05.846Z,17.10
2023-04-22T03:33:33.475Z,19.98
2023-04-22T03:36:01.109Z,17.33
2023-04-22T03:38:28.641Z,18.23
2023-04-22T03:40:56.265Z,15.55
2023-04-22T03:43:25.674Z,20.13
2023-04-22T03:45:53.248Z,15.43
2023-04-22T03:48:20.920Z,13.98
2023-04-22T03:50:48.507Z,15.02
2023-04-22T03:53:16.184Z,19.30
2023-04-22T03:55:43.850Z,18.52
2023-04-22T03:58:11.621Z,17.77
2023-04-22T04:00:40.487Z,16.85
2023-04-22T04:03:08.298Z,13.25
2023-04-22T04:05:36.457Z,16.90
2023-04-22T04:08:04.349Z,18.98
2023-04-22T04:10:32.093Z,15.07
2023-04-22T04:12:59.704Z,20.92
2023-04-22T04:15:27.472Z,17.90
2023-04-22T04:17:56.803Z,14.88
2023-04-22T04:20:24.709Z,14.60
2023-04-22T04:22:52.311Z,18.40
2023-04-22T04:25:21.159Z,17.52
2023-04-22T04:27:50.239Z,20.38
2023-04-22T04:30:17.861Z,17.40
2023-04-22T04:32:45.855Z,15.40
2023-04-22T04:35:15.180Z,17.42
2023-04-22T04:37:43.842Z,19.75
2023-04-22T04:40:13.552Z,20.17
2023-04-22T04:42:42.316Z,18.63
2023-04-22T04:45:10.537Z,18.60
2023-04-22T04:47:38.954Z,17.42
2023-04-22T04:50:07.641Z,18.35
2023-04-22T04:52:36.651Z,13.57
2023-04-22T04:55:04.503Z,15.25
2023-04-22T04:57:32.266Z,16.35
2023-04-22T04:59:59.899Z,15.18
2023-04-22T05:02:27.562Z,17.52
2023-04-22T05:04:55.325Z,18.45
2023-04-22T05:07:23.004Z,16.33
2023-04-22T05:09:53.192Z,16.15
2023-04-22T05:12:20.772Z,16.55
2023-04-22T05:14:48.316Z,13.55
2023-04-22T05:17:15.921Z,18.42
2023-04-22T05:19:44.523Z,12.88
2023-04-22T05:22:12.144Z,13.82
2023-04-22T05:24:40.887Z,11.38
2023-04-22T05:27:10.033Z,15.35
2023-04-22T05:29:37.923Z,15.40
2023-04-22T05:32:06.099Z,13.40
2023-04-22T05:34:34.200Z,13.88
2023-04-22T05:37:03.250Z,12.77
2023-04-22T05:39:30.888Z,16.05
2023-04-22T05:41:58.535Z,13.27
2023-04-22T05:44:27.801Z,15.02
2023-04-22T05:46:55.567Z,10.10
2023-04-22T05:49:23.213Z,11.45
2023-04-22T05:52:00.189Z,22.08
2023-04-22T05:54:29.344Z,13.00
2023-04-22T05:56:58.413Z,12.13
2023-04-22T05:59:27.440Z,15.80
2023-04-22T06:01:55.135Z,10.88
2023-04-22T06:04:22.978Z,13.95
2023-04-22T06:06:53.633Z,10.13
2023-04-22T06:09:21.706Z,13.55
2023-04-22T06:11:49.769Z,11.18
2023-04-22T06:14:17.408Z,10.10
2023-04-22T06:16:46.294Z,10.07
2023-04-22T06:19:13.959Z,12.52
2023-04-22T06:21:42.536Z,13.43
2023-04-22T06:24:10.917Z,11.82
2023-04-22T06:26:39.041Z,14.35
2023-04-22T06:29:06.733Z,13.57
2023-04-22T06:31:34.871Z,12.35
2023-04-22T06:34:05.044Z,13.05
2023-04-22T06:36:37.166Z,16.48
2023-04-22T06:39:05.434Z,11.98
2023-04-22T06:41:33.091Z,12.15
2023-04-22T06:44:00.871Z,11.88
2023-04-22T06:46:28.545Z,10.20
2023-04-22T06:48:56.188Z,10.10
2023-04-22T06:51:26.301Z,8.52
2023-04-22T06:54:00.428Z,10.27
2023-04-22T06:56:28.162Z,9.73
2023-04-22T06:58:55.879Z,9.07
2023-04-22T07:01:23.745Z,9.52
2023-04-22T07:03:51.415Z,8.60
2023-04-22T07:06:19.482Z,6.53
2023-04-22T07:08:48.438Z,7.43
2023-04-22T07:11:16.101Z,7.38
2023-04-22T07:13:43.673Z,6.50
2023-04-22T07:16:11.349Z,7.47
2023-04-22T07:18:39.856Z,6.57
2023-04-22T07:21:07.483Z,10.75
2023-04-22T07:23:35.083Z,6.00
2023-04-22T07:26:07.211Z,7.85
2023-04-22T07:28:34.809Z,8.15
2023-04-22T07:31:03.253Z,6.97
2023-04-22T07:33:30.940Z,7.22
2023-04-22T07:35:58.583Z,8.77
2023-04-22T07:38:26.929Z,8.55
2023-04-22T07:40:54.524Z,8.23
2023-04-22T07:43:23.493Z,8.75
2023-04-22T07:45:51.198Z,6.72
2023-04-22T07:48:19.216Z,6.97
2023-04-22T07:50:46.833Z,6.22
2023-04-22T07:53:15.904Z,6.07
2023-04-22T07:55:43.604Z,9.75
2023-04-22T07:58:11.198Z,9.63
2023-04-22T08:00:40.130Z,6.05
2023-04-22T08:03:08.076Z,5.82
2023-04-22T08:05:36.124Z,6.32
2023-04-22T08:08:04.788Z,9.18
2023-04-22T08:10:32.635Z,8.98
2023-04-22T08:13:01.860Z,6.30
2023-04-22T08:15:29.637Z,6.00
2023-04-22T08:17:59.217Z,6.15
2023-04-22T08:20:27.385Z,5.30
2023-04-22T08:22:58.165Z,7.85
2023-04-22T08:25:26.494Z,7.55
2023-04-22T08:27:54.316Z,6.70
2023-04-22T08:30:22.360Z,5.32
2023-04-22T08:32:53.297Z,6.55
2023-04-22T08:35:22.667Z,3.53
2023-04-22T08:37:50.322Z,5.75
2023-04-22T08:40:18.018Z,6.10
2023-04-22T08:42:45.936Z,5.55
2023-04-22T08:45:15.233Z,5.25
2023-04-22T08:47:43.864Z,3.45
2023-04-22T08:50:12.371Z,3.42
2023-04-22T08:52:43.478Z,4.03
2023-04-22T08:55:11.133Z,4.47
2023-04-22T08:57:40.254Z,7.00
2023-04-22T09:00:10.124Z,4.45
2023-04-22T09:02:44.906Z,11.90
2023-04-22T09:05:14.604Z,4.05
2023-04-22T09:07:43.624Z,8.90
2023-04-22T09:10:12.765Z,5.45
2023-04-22T09:12:42.083Z,4.72
2023-04-22T09:15:10.801Z,7.05
2023-04-22T09:17:39.021Z,4.63
2023-04-22T09:20:10.923Z,4.00
2023-04-22T09:22:41.376Z,4.60
2023-04-22T09:25:17.034Z,7.75
2023-04-22T09:27:44.766Z,4.43
2023-04-22T09:30:14.632Z,4.93
2023-04-22T09:32:42.382Z,6.90
2023-04-22T09:35:10.338Z,4.72
2023-04-22T09:37:48.801Z,5.13
2023-04-22T09:40:20.196Z,3.60
2023-04-22T09:42:50.996Z,5.50
2023-04-22T09:45:31.679Z,6.18
2023-04-22T09:48:02.843Z,5.03
2023-04-22T09:50:30.951Z,4.43
2023-04-22T09:53:01.558Z,4.78
2023-04-22T09:55:34.032Z,4.50
2023-04-22T09:58:07.653Z,6.18
2023-04-22T10:00:37.795Z,4.47
2023-04-22T10:03:08.012Z,4.43
2023-04-22T10:05:37.912Z,4.07
2023-04-22T10:08:06.302Z,4.32
2023-04-22T10:10:37.306Z,6.47
2023-04-22T10:13:06.545Z,7.05
2023-04-22T10:15:37.058Z,4.40
2023-04-22T10:18:07.789Z,4.85
2023-04-22T10:20:39.835Z,5.85
2023-04-22T10:23:14.220Z,6.00
2023-04-22T10:25:43.188Z,6.35
2023-04-22T10:28:12.027Z,5.75
2023-04-22T10:30:41.321Z,7.25
2023-04-22T10:33:39.106Z,8.48
2023-04-22T10:36:11.853Z,4.63
2023-04-22T10:38:41.648Z,4.93
2023-04-22T10:41:16.061Z,2.97
2023-04-22T10:43:45.339Z,3.47
2023-04-22T10:46:55.343Z,4.80
2023-04-22T10:49:24.870Z,4.95
2023-04-22T10:51:54.019Z,2.80
2023-04-22T10:55:00.750Z,3.53
2023-04-22T10:57:37.764Z,3.63
2023-04-22T11:00:28.046Z,4.32
2023-04-22T11:03:10.792Z,5.78
2023-04-22T11:05:39.543Z,4.93
2023-04-22T11:08:09.955Z,3.53
2023-04-22T11:10:44.628Z,3.75
2023-04-22T11:13:15.875Z,3.58
2023-04-22T11:15:44.909Z,3.17
2023-04-22T11:18:17.988Z,5.28
2023-04-22T11:20:48.160Z,3.05
2023-04-22T11:23:21.785Z,2.83
2023-04-22T11:25:49.724Z,3.85
2023-04-22T11:28:22.787Z,3.17
2023-04-22T11:30:51.360Z,3.63
2023-04-22T11:33:20.537Z,4.03
2023-04-22T11:35:50.513Z,2.08
2023-04-22T11:38:18.279Z,2.85
2023-04-22T11:40:47.299Z,3.90
2023-04-22T11:43:15.751Z,7.40
2023-04-22T11:45:44.849Z,3.22
2023-04-22T11:48:12.552Z,3.83
2023-04-22T11:50:42.140Z,4.43
2023-04-22T11:53:16.099Z,4.85
2023-04-22T11:55:46.544Z,5.35
2023-04-22T11:58:16.047Z,6.00
2023-04-22T12:00:47.249Z,3.65
2023-04-22T12:03:19.130Z,4.20
2023-04-22T12:05:48.632Z,3.15
2023-04-22T12:08:17.818Z,4.82
2023-04-22T12:10:46.970Z,3.15
2023-04-22T12:13:21.777Z,3.67
2023-04-22T12:15:56.263Z,6.50
2023-04-22T12:18:30.867Z,7.43
2023-04-22T12:21:01.035Z,3.88
2023-04-22T12:23:29.175Z,3.78
2023-04-22T12:25:57.105Z,5.70
2023-04-22T12:28:25.484Z,4.03
2023-04-22T12:30:54.464Z,4.72
2023-04-22T12:33:22.233Z,5.10
2023-04-22T12:35:52.855Z,3.65
2023-04-22T12:38:21.059Z,3.63
2023-04-22T12:40:48.813Z,3.97
2023-04-22T12:43:16.476Z,5.93
2023-04-22T12:45:44.390Z,4.88
2023-04-22T12:48:13.448Z,4.82
2023-04-22T12:50:41.691Z,2.22
2023-04-22T12:53:09.470Z,2.90
2023-04-22T12:55:39.288Z,3.10
2023-04-22T12:58:06.986Z,4.38
2023-04-22T13:00:34.867Z,4.43
2023-04-22T13:03:02.869Z,3.65
2023-04-22T13:05:31.970Z,4.65
2023-04-22T13:08:07.137Z,2.67
2023-04-22T13:10:36.295Z,7.65
2023-04-22T13:15:36.386Z,4.25
2023-04-22T13:18:04.663Z,4.60
2023-04-22T13:20:33.736Z,3.60
2023-04-22T13:23:02.178Z,4.40
2023-04-22T13:25:30.041Z,2.55
2023-04-22T13:27:57.681Z,3.22
2023-04-22T13:30:25.473Z,3.05
2023-04-22T13:32:54.878Z,3.67
2023-04-22T13:35:22.754Z,3.00
2023-04-22T13:37:51.888Z,3.72
2023-04-22T13:40:21.789Z,3.45
2023-04-22T13:42:49.386Z,2.88
2023-04-22T13:45:17.079Z,2.05
2023-04-22T13:47:44.839Z,4.70
2023-04-22T13:50:12.771Z,3.30
2023-04-22T13:52:40.426Z,8.75
2023-04-22T13:55:11.902Z,4.00
2023-04-22T13:57:39.535Z,2.72
2023-04-22T14:00:09.877Z,3.58
2023-04-22T14:02:37.683Z,3.70
2023-04-22T14:05:06.202Z,2.88
2023-04-22T14:07:34.324Z,3.75
2023-04-22T14:10:02.065Z,3.40
2023-04-22T14:12:31.133Z,7.07
2023-04-22T14:14:58.809Z,3.28
2023-04-22T14:17:27.749Z,2.58
2023-04-22T14:19:55.584Z,6.65
2023-04-22T14:22:23.313Z,5.72
2023-04-22T14:24:50.996Z,4.88
2023-04-22T14:27:18.747Z,2.28
2023-04-22T14:29:52.179Z,3.58
2023-04-22T14:32:25.003Z,3.70
2023-04-22T14:34:53.077Z,2.80
2023-04-22T14:37:21.652Z,3.60
2023-04-22T14:39:49.766Z,4.82
2023-04-22T14:42:18.409Z,2.22
2023-04-22T14:44:49.201Z,3.22
2023-04-22T14:47:16.880Z,4.70
2023-04-22T14:49:44.715Z,4.95
2023-04-22T14:52:12.534Z,4.78
2023-04-22T14:54:40.394Z,5.95
2023-04-22T14:57:08.069Z,4.30
2023-04-22T14:59:36.178Z,2.67
2023-04-22T15:02:05.848Z,2.70
2023-04-22T15:04:33.725Z,4.85
2023-04-22T15:07:02.643Z,5.35
2023-04-22T15:09:30.257Z,3.85
2023-04-22T15:11:59.515Z,4.38
2023-04-22T15:14:27.158Z,3.88
2023-04-22T15:16:54.971Z,5.55
2023-04-22T15:19:24.069Z,3.20
2023-04-22T15:21:51.759Z,3.35
2023-04-22T15:24:20.504Z,4.82
2023-04-22T15:26:48.492Z,4.07
2023-04-22T15:29:16.242Z,3.28
2023-04-22T15:31:43.886Z,3.20
2023-04-22T15:34:11.726Z,2.78
2023-04-22T15:36:40.900Z,2.90
2023-04-22T15:39:10.697Z,5.88
2023-04-22T15:41:38.617Z,2.83
2023-04-22T15:44:08.553Z,3.60
2023-04-22T15:46:36.971Z,2.33
2023-04-22T15:49:05.500Z,3.35
2023-04-22T15:51:33.623Z,2.75
2023-04-22T15:54:03.819Z,1.92
2023-04-22T15:56:35.321Z,3.08
2023-04-22T15:59:03.144Z,2.25
2023-04-22T16:01:30.915Z,3.35
2023-04-22T16:03:58.906Z,2.58
2023-04-22T16:06:29.004Z,2.90
2023-04-22T16:08:56.707Z,2.70
2023-04-22T16:11:25.676Z,2.50
2023-04-22T16:13:53.374Z,3.50
2023-04-22T16:16:25.094Z,3.47
2023-04-22T16:18:52.819Z,4.07
2023-04-22T16:21:20.492Z,3.97
2023-04-22T16:23:48.568Z,2.75
2023-04-22T16:26:16.493Z,3.45
2023-04-22T16:28:46.835Z,5.60
2023-04-22T16:31:14.499Z,4.85
2023-04-22T16:33:42.181Z,4.18
2023-04-22T16:36:10.273Z,3.05
2023-04-22T16:38:38.017Z,4.00
2023-04-22T16:41:06.113Z,4.88
2023-04-22T16:43:33.935Z,4.10
2023-04-22T16:46:03.887Z,3.15
2023-04-22T16:48:32.166Z,4.57
2023-04-22T16:51:00.046Z,4.55
2023-04-22T16:53:27.697Z,4.72
2023-04-22T16:55:55.794Z,3.67
2023-04-22T16:58:23.514Z,2.95
2023-04-22T17:00:51.162Z,3.67
2023-04-22T17:03:21.206Z,2.28
2023-04-22T17:05:49.065Z,2.67
2023-04-22T17:08:16.847Z,3.03
2023-04-22T17:10:45.791Z,4.60
2023-04-22T17:13:14.138Z,3.25
2023-04-22T17:15:42.492Z,4.38
2023-04-22T17:18:10.759Z,3.55
2023-04-22T17:20:42.165Z,5.63
2023-04-22T17:23:09.772Z,5.90
2023-04-22T17:25:39.975Z,5.07
2023-04-22T17:28:07.632Z,3.42
2023-04-22T17:30:36.060Z,3.30
2023-04-22T17:33:05.023Z,7.40
2023-04-22T17:35:33.322Z,4.32
2023-04-22T17:38:02.434Z,4.72
2023-04-22T17:40:30.596Z,4.32
2023-04-22T17:42:58.208Z,4.38
2023-04-22T17:45:25.950Z,3.47
2023-04-22T17:47:53.635Z,3.95
2023-04-22T17:50:23.435Z,4.43
2023-04-22T17:52:51.381Z,6.38
2023-04-22T17:55:20.808Z,7.25
2023-04-22T17:57:49.951Z,5.70
2023-04-22T18:00:18.863Z,4.35
2023-04-22T18:02:47.167Z,6.65
2023-04-22T18:05:14.935Z,7.22
2023-04-22T18:07:42.589Z,3.85
2023-04-22T18:10:11.869Z,6.00
2023-04-22T18:12:42.314Z,8.57
2023-04-22T18:15:10.301Z,4.55
2023-04-22T18:17:38.444Z,4.28
2023-04-22T18:20:17.412Z,7.47
2023-04-22T18:22:48.865Z,6.43
2023-04-22T18:25:16.797Z,4.15
2023-04-22T18:27:46.180Z,5.22
2023-04-22T18:30:14.400Z,8.48
2023-04-22T18:32:42.478Z,7.07
2023-04-22T18:35:12.468Z,4.72
2023-04-22T18:37:40.336Z,6.88
2023-04-22T18:40:09.531Z,5.20
2023-04-22T18:42:38.012Z,5.85
2023-04-22T18:45:08.658Z,5.40
2023-04-22T18:47:36.495Z,5.78
2023-04-22T18:50:05.396Z,4.00
2023-04-22T18:52:33.115Z,4.40
2023-04-22T18:55:00.780Z,3.65
2023-04-22T18:57:28.478Z,3.47
2023-04-22T18:59:56.067Z,6.57
2023-04-22T19:02:25.471Z,2.88
2023-04-22T19:04:54.031Z,3.20
2023-04-22T19:07:21.774Z,4.80
2023-04-22T19:09:49.449Z,2.72
2023-04-22T19:12:19.448Z,4.05
2023-04-22T19:14:48.172Z,3.75
2023-04-22T19:17:16.486Z,4.63
2023-04-22T19:19:46.396Z,5.10
2023-04-22T19:22:16.109Z,5.95
2023-04-22T19:24:43.946Z,4.85
2023-04-22T19:27:12.845Z,5.22
2023-04-22T19:29:41.586Z,3.88
2023-04-22T19:32:10.971Z,3.88
2023-04-22T19:34:39.533Z,4.00
2023-04-22T19:37:11.130Z,5.70
2023-04-22T19:39:39.521Z,5.05
2023-04-22T19:42:07.633Z,4.43
2023-04-22T19:44:36.411Z,3.22
2023-04-22T19:47:04.282Z,4.40
2023-04-22T19:49:33.470Z,4.20
2023-04-22T19:52:03.127Z,4.95
2023-04-22T19:54:33.513Z,6.03
2023-04-22T19:57:02.154Z,6.47
2023-04-22T19:59:31.527Z,4.00
2023-04-22T20:02:01.892Z,4.40
2023-04-22T20:04:30.347Z,3.08
2023-04-22T20:07:00.738Z,4.95
2023-04-22T20:09:33.443Z,5.15
2023-04-22T20:12:01.519Z,4.32
2023-04-22T20:14:30.039Z,4.50
2023-04-22T20:17:03.944Z,3.80
2023-04-22T20:19:33.038Z,3.78
2023-04-22T20:22:01.572Z,3.83
2023-04-22T20:24:29.790Z,4.63
2023-04-22T20:26:59.303Z,5.03
2023-04-22T20:29:27.354Z,3.97
2023-04-22T20:31:56.354Z,6.30
2023-04-22T20:34:24.494Z,5.82
2023-04-22T20:36:53.524Z,4.85
2023-04-22T20:39:23.214Z,5.05
2023-04-22T20:41:55.807Z,7.60
2023-04-22T20:44:25.140Z,7.68
2023-04-22T20:46:53.220Z,6.07
2023-04-22T20:49:21.140Z,7.03
2023-04-22T20:51:49.904Z,6.28
2023-04-22T20:54:28.579Z,6.72
2023-04-22T20:56:58.884Z,7.38
2023-04-22T20:59:28.435Z,6.28
2023-04-22T21:01:56.839Z,9.13
2023-04-22T21:04:25.637Z,6.78
2023-04-22T21:06:58.233Z,7.32
2023-04-22T21:09:27.005Z,6.85
2023-04-22T21:11:55.254Z,6.10
2023-04-22T21:14:26.171Z,6.25
2023-04-22T21:17:00.977Z,5.30
2023-04-22T21:19:32.721Z,4.93
2023-04-22T21:22:04.443Z,6.78
2023-04-22T21:24:33.466Z,5.10
2023-04-22T21:27:01.260Z,6.90
2023-04-22T21:29:32.818Z,5.13
2023-04-22T21:32:09.207Z,6.05
2023-04-22T21:34:37.874Z,5.15
2023-04-22T21:37:06.411Z,4.15
2023-04-22T21:39:37.079Z,5.75
2023-04-22T21:42:07.719Z,4.30
2023-04-22T21:44:36.842Z,4.88
2023-04-22T21:47:06.633Z,5.00
2023-04-22T21:49:34.437Z,4.50
2023-04-22T21:52:02.160Z,4.93
2023-04-22T21:54:30.047Z,5.38
2023-04-22T21:56:57.924Z,4.93
2023-04-22T21:59:25.590Z,6.28
2023-04-22T22:01:53.767Z,4.13
2023-04-22T22:04:23.125Z,5.60
2023-04-22T22:06:50.982Z,4.55
2023-04-22T22:09:18.841Z,4.68
2023-04-22T22:11:46.394Z,5.22
2023-04-22T22:14:13.993Z,5.75
2023-04-22T22:16:42.398Z,4.55
2023-04-22T22:19:11.329Z,6.18
2023-04-22T22:21:40.278Z,4.43
2023-04-22T22:24:09.271Z,5.72
2023-04-22T22:26:36.944Z,5.63
2023-04-22T22:29:04.537Z,5.70
2023-04-22T22:31:32.181Z,6.15
2023-04-22T22:34:00.169Z,6.82
2023-04-22T22:36:28.012Z,5.00
2023-04-22T22:38:57.177Z,4.32
2023-04-22T22:41:24.757Z,5.03
2023-04-22T22:43:52.401Z,5.15
2023-04-22T22:46:20.251Z,5.43
2023-04-22T22:48:48.197Z,5.25
2023-04-22T22:51:18.344Z,8.52
2023-04-22T22:53:46.386Z,5.28
2023-04-22T22:56:15.516Z,4.10
2023-04-22T22:58:43.206Z,4.78
2023-04-22T23:01:10.934Z,4.40
2023-04-22T23:03:39.148Z,3.88
2023-04-22T23:06:07.889Z,4.97
2023-04-22T23:08:35.881Z,3.13
2023-04-22T23:11:03.506Z,3.97
2023-04-22T23:13:32.456Z,5.03
2023-04-22T23:16:00.572Z,6.10
2023-04-22T23:18:29.683Z,5.07
2023-04-22T23:21:00.222Z,3.75
2023-04-22T23:23:29.338Z,4.78
2023-04-22T23:25:57.537Z,4.30
2023-04-22T23:28:25.690Z,3.80
2023-04-22T23:30:56.260Z,4.88
2023-04-22T23:33:26.289Z,6.50
2023-04-22T23:35:56.450Z,5.63
2023-04-22T23:38:24.066Z,5.57
2023-04-22T23:40:51.659Z,6.15
2023-04-22T23:43:20.949Z,4.60
2023-04-22T23:45:48.735Z,4.53
2023-04-22T23:48:17.726Z,4.15
2023-04-22T23:50:45.467Z,4.90
2023-04-22T23:53:13.063Z,4.93
2023-04-22T23:55:41.174Z,4.35
2023-04-22T23:58:09.055Z,4.95
